Latest Weather Observations for Badgerys Creek

IDN60901

Issued at 10:05 am EST Saturday 19 April 2014 (issued every 10 minutes, with the page automatically refreshed every 10 minutes)

About weather observations | Map of Sydney area stations | Latest observations for Sydney area | Other Formats
Station Details ID: 067108 Name: BADGERYS CREEK AWS Lat: -33.90 Lon: 150.73 Height: 81.2 m
Data from the previous 72 hours. | See also: Recent months at Badgerys Creek
Date/Time
EST
Tmp

°C
App
Tmp
°C
Dew
Point
°C
Rel
Hum
%
Delta-T

°C
Wind Press
QNH
hPa
Press
MSL
hPa
Rain
since
9 am
mm
Dir
 
Spd
km/h
Gust
km/h
Spd
kts
Gust
kts
19/10:00am 18.8 17.5 11.4 62 4.1 SSE 9 15 5 8 1016.6 1016.5 0.0
19/09:30am 17.8 16.5 11.1 65 3.6 SSE 9 13 5 7 1016.7 - 0.0
19/09:00am 17.0 15.8 11.5 70 3.0 S 9 13 5 7 1016.7 1016.6 0.0
19/08:30am 15.7 15.5 11.7 77 2.2 WSW 4 6 2 3 1016.9 - 0.0
19/08:00am 14.4 15.1 12.1 86 1.2 CALM 0 0 0 0 1016.7 1016.6 0.0
19/07:30am 12.4 12.0 11.0 91 0.7 WNW 4 6 2 3 1016.5 - 0.0
19/07:00am 11.2 10.6 10.4 95 0.4 WNW 4 6 2 3 1016.3 1016.2 0.0
19/06:30am 9.7 8.2 9.1 96 0.3 SW 7 9 4 5 1015.9 - 0.0
19/06:00am 9.8 8.4 8.9 94 0.4 WSW 6 9 3 5 1015.8 1015.7 0.0
19/05:30am 10.4 10.2 9.0 91 0.7 CALM 0 4 0 2 1015.5 - 0.0
19/05:00am 11.1 9.9 9.7 91 0.7 SW 6 7 3 4 1015.3 1015.2 0.0
19/04:30am 10.9 9.6 9.3 90 0.8 WSW 6 7 3 4 1015.1 - 0.0
19/04:00am 10.6 9.3 9.2 91 0.7 SW 6 7 3 4 1014.8 1014.7 0.0
19/03:30am 11.7 10.9 9.8 88 1.0 SW 4 6 2 3 1014.8 - 0.0
19/03:00am 11.7 11.3 9.6 87 1.1 SW 2 7 1 4 1014.7 1014.6 0.0
19/02:30am 12.3 11.5 9.5 83 1.4 SSW 4 4 2 2 1014.7 - 0.0
19/02:00am 13.0 11.7 9.8 81 1.6 S 7 9 4 5 1014.6 1014.5 0.0
19/01:30am 11.5 11.3 9.1 85 1.2 SSE 0 0 0 0 1014.6 - 0.0
19/01:00am 12.1 11.8 10.0 87 1.1 S 2 4 1 2 1014.3 1014.2 0.0
19/12:30am 12.0 11.1 9.4 84 1.3 S 4 6 2 3 1014.2 - 0.0
19/12:00am 12.3 11.6 9.9 85 1.2 SW 4 6 2 3 1014.1 1014.0 0.0
 
Date/Time
EST
Tmp

°C
App
Tmp
°C
Dew
Point
°C
Rel
Hum
%
Delta-T

°C
Wind Press
QNH
hPa
Press
MSL
hPa
Rain
since
9 am
mm
Dir
 
Spd
km/h
Gust
km/h
Spd
kts
Gust
kts
18/11:30pm 12.3 11.8 9.5 83 1.4 S 2 6 1 3 1014.0 - 0.0
18/11:00pm 13.4 13.0 9.6 78 2.0 W 2 6 1 3 1014.0 1013.9 0.0
18/10:30pm 14.8 13.7 9.8 72 2.6 WNW 6 9 3 5 1014.2 - 0.0
18/10:00pm 14.4 13.7 10.0 75 2.3 WNW 4 7 2 4 1014.2 1014.1 0.0
18/09:30pm 15.1 13.8 10.1 72 2.6 WNW 7 9 4 5 1014.4 - 0.0
18/09:00pm 14.8 13.7 10.0 73 2.5 W 6 7 3 4 1014.6 1014.5 0.0
18/08:30pm 15.1 14.5 10.5 74 2.4 W 4 7 2 4 1014.5 - 0.0
18/08:00pm 17.1 16.4 10.0 63 3.8 WNW 4 9 2 5 1014.2 1014.1 0.0
18/07:30pm 17.8 17.0 10.9 64 3.7 WNW 6 7 3 4 1014.2 - 0.0
18/07:00pm 17.5 16.4 10.1 62 3.9 WNW 6 7 3 4 1013.8 1013.7 0.0
18/06:30pm 19.6 18.3 9.2 51 5.5 WNW 6 6 3 3 1013.5 - 0.0
18/06:00pm 19.9 18.3 10.3 54 5.2 W 9 13 5 7 1013.4 1013.3 0.0
18/05:30pm 19.7 18.5 10.4 55 5.0 WSW 7 11 4 6 1013.1 - 0.0
18/05:00pm 22.1 19.7 9.9 46 6.6 WSW 13 17 7 9 1012.7 1012.5 0.0
18/04:30pm 23.1 19.4 9.5 42 7.4 SW 19 26 10 14 1012.4 - 0.0
18/04:00pm 23.6 19.2 8.8 39 8.0 SW 22 30 12 16 1012.0 1011.8 0.0
18/03:30pm 24.3 20.1 8.3 36 8.6 SW 20 32 11 17 1012.1 - 0.0
18/03:00pm 24.8 20.7 8.7 36 8.7 WSW 20 30 11 16 1012.2 1012.0 0.0
18/02:30pm 25.1 22.7 10.2 39 8.3 WSW 13 24 7 13 1012.2 - 0.0
18/02:00pm 24.8 22.1 10.3 40 8.1 W 15 22 8 12 1012.3 1012.1 0.0
18/01:30pm 24.1 21.1 9.3 39 8.1 WSW 15 24 8 13 1012.6 - 0.0
18/01:00pm 23.8 21.5 9.0 39 8.0 W 11 22 6 12 1012.9 1012.7 0.0
18/12:30pm 23.5 21.6 10.6 44 7.2 WNW 11 19 6 10 1013.5 - 0.0
18/12:00pm 23.2 21.4 10.9 46 6.8 W 11 19 6 10 1014.1 1014.0 0.0
18/11:30am 22.0 20.4 8.9 43 7.0 W 7 15 4 8 1014.7 - 0.0
18/11:00am 21.5 20.8 11.5 53 5.6 NNW 6 11 3 6 1015.3 1015.2 0.0
18/10:30am 20.5 20.0 12.2 59 4.7 N 6 9 3 5 1015.8 - 0.0
18/10:00am 19.8 19.8 11.0 57 4.8 W 2 6 1 3 1016.4 1016.3 0.0
18/09:30am 17.9 18.2 12.1 69 3.2 W 2 4 1 2 1016.6 - 0.0
18/09:00am 16.8 17.0 11.7 72 2.8 W 2 6 1 3 1016.6 1016.5 0.0
18/08:30am 15.3 15.9 11.9 80 1.8 CALM 0 0 0 0 1016.9 - 0.0
18/08:00am 14.0 14.2 11.9 87 1.1 W 2 4 1 2 1017.0 1016.9 0.0
18/07:30am 12.2 12.7 11.6 96 0.3 CALM 0 4 0 2 1017.0 - 0.0
18/07:00am 10.3 9.9 9.7 96 0.3 WSW 2 4 1 2 1017.0 1016.9 0.0
18/06:30am 10.5 10.1 9.9 96 0.3 SW 2 4 1 2 1017.0 - 0.0
18/06:00am 10.2 9.3 9.1 93 0.5 WSW 4 6 2 3 1016.9 1016.8 0.0
18/05:30am 11.5 10.8 10.2 92 0.7 WSW 4 4 2 2 1016.9 - 0.0
18/05:00am 11.7 11.5 10.4 92 0.7 WSW 2 4 1 2 1016.9 1016.8 0.0
18/04:30am 11.2 10.8 9.8 91 0.7 WSW 2 4 1 2 1017.0 - 0.0
18/04:00am 11.9 9.7 10.8 93 0.6 WSW 13 17 7 9 1017.2 1017.1 0.0
18/03:30am 11.2 9.2 10.1 93 0.6 WSW 11 11 6 6 1017.2 - 0.0
18/03:00am 11.8 9.5 10.4 91 0.7 WSW 13 13 7 7 1017.3 1017.2 0.0
18/02:30am 12.4 10.1 10.6 89 0.9 WSW 13 15 7 8 1017.6 - 0.0
18/02:00am 12.8 10.3 10.9 88 1.0 WSW 15 15 8 8 1017.7 1017.5 0.0
18/01:30am 12.8 10.2 10.7 87 1.1 WSW 15 15 8 8 1017.9 - 0.0
18/01:00am 11.7 10.4 10.1 90 0.8 WSW 7 11 4 6 1018.4 1018.2 0.0
18/12:30am 12.5 11.5 10.9 90 0.8 WSW 7 7 4 4 1018.6 - 0.0
18/12:00am 12.4 10.8 10.3 87 1.1 WSW 9 9 5 5 1018.8 1018.6 0.0
 
Date/Time
EST
Tmp

°C
App
Tmp
°C
Dew
Point
°C
Rel
Hum
%
Delta-T

°C
Wind Press
QNH
hPa
Press
MSL
hPa
Rain
since
9 am
mm
Dir
 
Spd
km/h
Gust
km/h
Spd
kts
Gust
kts
17/11:30pm 12.6 11.2 10.8 89 0.9 WSW 9 11 5 6 1019.1 - 0.0
17/11:00pm 12.9 11.6 11.1 89 0.9 WSW 9 11 5 6 1019.4 1019.2 0.0
17/10:30pm 12.7 11.4 11.4 92 0.7 WSW 9 11 5 6 1019.7 - 0.0
17/10:00pm 13.3 12.1 11.7 90 0.9 W 9 11 5 6 1019.8 1019.6 0.0
17/09:30pm 13.9 13.3 11.8 87 1.1 W 6 7 3 4 1019.9 - 0.0
17/09:00pm 14.3 13.5 11.8 85 1.3 WNW 7 11 4 6 1019.8 1019.6 0.0
17/08:30pm 14.9 14.4 12.2 84 1.5 W 6 7 3 4 1019.8 - 0.0
17/08:00pm 15.4 14.9 12.7 84 1.5 W 7 9 4 5 1019.5 1019.3 0.0
17/07:30pm 15.8 15.4 12.5 81 1.8 SW 6 7 3 4 1019.2 - 0.0
17/07:00pm 16.4 15.9 12.2 76 2.3 S 6 9 3 5 1019.0 1018.8 0.0
17/06:30pm 17.5 17.1 12.4 72 2.8 S 6 7 3 4 1018.8 - 0.0
17/06:00pm 18.0 17.4 12.2 69 3.2 SE 7 13 4 7 1018.5 1018.3 0.0
17/05:30pm 18.8 17.7 12.1 65 3.7 SE 9 17 5 9 1018.2 - 0.0
17/05:00pm 20.0 17.9 11.2 57 4.8 ESE 13 17 7 9 1017.8 1017.6 0.0
17/04:30pm 21.3 19.5 10.8 51 5.8 ESE 11 17 6 9 1017.3 - 0.0
17/04:00pm 22.3 20.6 11.1 49 6.2 ESE 11 19 6 10 1017.2 1017.1 0.0
17/03:30pm 23.1 21.3 8.0 38 8.0 SSE 7 11 4 6 1017.1 - 0.0
17/03:00pm 23.3 20.9 8.6 39 7.8 SSE 11 20 6 11 1017.3 1017.2 0.0
17/02:30pm 23.2 20.3 8.1 38 8.0 S 13 24 7 13 1017.3 - 0.0
17/02:00pm 23.6 21.4 9.2 40 7.8 SSW 11 19 6 10 1017.6 1017.4 0.0
17/01:30pm 23.5 21.2 9.1 40 7.8 S 11 19 6 10 1017.8 - 0.0
17/01:00pm 23.0 21.3 9.8 43 7.2 S 9 17 5 9 1018.0 1017.8 0.0
17/12:30pm 22.4 20.7 9.9 45 6.8 S 9 17 5 9 1018.3 - 0.0
17/12:00pm 22.4 21.1 11.2 49 6.2 SSW 9 15 5 8 1018.9 1018.7 0.0
17/11:30am 21.8 20.0 10.9 50 6.0 SSW 11 17 6 9 1019.5 - 0.0
17/11:00am 21.3 19.5 10.8 51 5.8 S 11 17 6 9 1019.8 1019.6 0.0
17/10:30am 20.5 17.7 10.0 51 5.7 SW 15 20 8 11 1019.9 - 0.0
17/10:00am 20.1 19.3 12.8 63 4.1 SW 9 15 5 8 1020.0 1019.8 0.0
17/09:30am 18.5 17.6 12.5 68 3.4 SW 9 13 5 7 1020.0 - 0.0
17/09:00am 17.2 16.3 12.5 74 2.6 SW 9 13 5 7 1020.0 1019.8 0.0
17/08:30am 16.0 15.5 12.0 77 2.2 WSW 6 7 3 4 1020.1 - 0.0
17/08:00am 14.8 14.1 12.1 84 1.5 SW 7 9 4 5 1020.0 1019.8 0.0
17/07:30am 12.8 12.1 11.9 94 0.5 SW 7 9 4 5 1019.8 - 0.0
17/07:00am 10.9 9.9 10.3 96 0.3 SSW 6 7 3 4 1019.6 1019.4 0.0
17/06:30am 10.4 9.6 9.5 94 0.5 SW 4 4 2 2 1019.0 - 0.0
17/06:00am 11.0 9.9 9.9 93 0.6 SW 6 6 3 3 1018.8 1018.6 0.0
17/05:30am 11.3 10.2 10.0 92 0.7 SSW 6 6 3 3 1018.7 - 0.0
17/05:00am 11.4 10.6 9.7 89 0.9 SSW 4 7 2 4 1018.6 1018.4 0.0
17/04:30am 12.3 11.1 10.2 87 1.1 SW 7 11 4 6 1018.4 - 0.0
17/04:00am 12.7 10.2 10.9 89 0.9 WSW 15 15 8 8 1018.3 1018.1 0.0
17/03:30am 11.7 10.1 10.3 91 0.7 WSW 9 11 5 6 1018.1 - 0.0
17/03:00am 12.1 10.1 10.2 88 1.0 WSW 11 13 6 7 1018.1 1017.9 0.0
17/02:30am 12.0 9.6 10.2 89 0.9 WSW 13 15 7 8 1018.2 - 0.0
17/02:00am 12.8 11.0 10.7 87 1.1 WSW 11 13 6 7 1018.4 1018.2 0.0
17/01:30am 13.1 10.8 10.5 84 1.4 WSW 13 15 7 8 1018.7 - 0.0
17/01:00am 13.0 11.1 10.5 85 1.3 WSW 11 15 6 8 1019.0 1018.8 0.0
17/12:30am 12.6 10.7 10.5 87 1.1 WSW 11 13 6 7 1019.2 - 0.0
17/12:00am 12.3 10.4 10.5 89 0.9 WSW 11 13 6 7 1019.3 1019.1 0.0
 
Date/Time
EST
Tmp

°C
App
Tmp
°C
Dew
Point
°C
Rel
Hum
%
Delta-T

°C
Wind Press
QNH
hPa
Press
MSL
hPa
Rain
since
9 am
mm
Dir
 
Spd
km/h
Gust
km/h
Spd
kts
Gust
kts
16/11:30pm 12.7 11.2 10.6 87 1.1 WSW 9 11 5 6 1019.2 - 0.0
16/11:00pm 12.8 11.4 10.9 88 1.0 WSW 9 11 5 6 1019.3 1019.1 0.0
16/10:30pm 13.3 12.4 11.4 88 1.0 WSW 7 9 4 5 1019.5 - 0.0
16/10:00pm 13.6 12.4 11.5 87 1.1 WSW 9 9 5 5 1019.6 1019.4 0.0
16/09:30pm 13.4 12.1 11.1 86 1.2 WSW 9 11 5 6 1019.7 - 0.0
16/09:00pm 13.9 12.6 11.4 85 1.3 WSW 9 11 5 6 1019.6 1019.4 0.0
16/08:30pm 14.5 13.6 11.3 81 1.7 SW 7 9 4 5 1019.4 - 0.0
16/08:00pm 15.2 14.3 11.2 77 2.1 SSW 7 11 4 6 1019.2 1019.0 0.0
16/07:30pm 16.0 15.2 11.8 76 2.3 SSW 7 9 4 5 1019.1 - 0.0
16/07:00pm 15.9 15.3 11.7 76 2.3 SSW 6 7 3 4 1018.7 1018.5 0.0
16/06:30pm 17.3 16.7 11.6 69 3.1 SSE 6 11 3 6 1018.5 - 0.0
16/06:00pm 17.6 17.1 11.9 69 3.1 SE 6 7 3 4 1018.1 1017.9 0.0
16/05:30pm 18.4 17.7 11.9 66 3.6 SE 7 11 4 6 1017.8 - 0.0
16/05:00pm 19.8 18.6 11.6 59 4.5 SE 9 13 5 7 1017.5 1017.3 0.0
16/04:30pm 20.4 18.8 11.6 57 4.9 ESE 11 15 6 8 1017.2 - 0.0
16/04:00pm 21.1 18.8 11.7 55 5.2 SE 15 22 8 12 1017.2 1017.1 0.0
16/03:30pm 21.0 19.4 11.6 55 5.2 SE 11 15 6 8 1017.2 - 0.0
16/03:00pm 22.5 21.3 11.6 50 6.1 S 9 17 5 9 1017.2 1017.1 0.0
16/02:30pm 22.1 20.8 12.6 55 5.4 S 11 20 6 11 1017.5 - 0.0
16/02:00pm 22.3 21.2 12.0 52 5.8 SSE 9 15 5 8 1017.5 1017.3 0.0
16/01:30pm 21.9 20.2 12.5 55 5.3 S 13 19 7 10 1017.7 - 0.0
16/01:00pm 21.3 19.5 12.2 56 5.1 S 13 22 7 12 1017.9 1017.7 0.0
16/12:30pm 21.2 19.0 12.1 56 5.1 SSE 15 24 8 13 1018.4 - 0.0
16/12:00pm 21.1 19.4 12.5 58 4.9 S 13 20 7 11 1018.9 1018.7 0.0
16/11:30am 20.9 19.2 12.3 58 4.9 S 13 20 7 11 1019.5 - 0.0
16/11:00am 20.2 17.7 12.2 60 4.5 SW 17 26 9 14 1019.9 1019.7 0.0
16/10:30am 19.3 16.6 11.8 62 4.2 SW 17 20 9 11 1020.0 - 0.0

Latest Capital City Observations: Canberra | Sydney | Melbourne | Brisbane | Adelaide | Perth | Hobart | Darwin

Other Formats:

Comma delimited format used in spreadsheet applications
http://www.bom.gov.au/fwo/IDN60901/IDN60901.94752.axf

JavaScript Object Notation format (JSON) in row-major order
http://www.bom.gov.au/fwo/IDN60901/IDN60901.94752.json